Pagina principale
METAR-TAF:

METAR-TAF

Aeroporti :

Base aerea di Aviano

Aviano, Italia

latitudine: 46-02N, longitudine: 012-36E, altezza: 128 m

Osservazione

Il bollettino è stato emesso 26 minuti fa, alle 16:55 UTC
Vento 6 kt da nord-est
Temperature 21°C
Umidità 60%
Pressione 1000 hPa
Visibilità 10 km o più
Nubi sparse ad un'altezza di 7000 ft

METAR: LIPA 051655Z 05006KT 9999 SCT070 21/13 Q1000 RMK SCT VIS MIN 9999 WIND THR05 /////KT WIND THR23 /////KT A2955 BLU

Ora: 19:21 (17:21 UTC)

Previsione

Il bollettino è stato emesso 3 ore e 21 minuti fa, alle 14:00 UTC
Previsione valida dal 05 alle 15 UTC al 05 alle 24 UTC
Vento 10 kt da nord-est
Visibilità 10 km o più
Nubi sparse ad un'altezza di 4000 ft
Nuvoloso ad un'altezza di 6000 ft

TAF: LIPA 051400Z 0515/0524 05010KT 9999 SCT040 BKN060

Osservazioni e previsioni meteorologiche di più di 4000 aeroporti (messaggi METAR e TAF).

Le stazioni disponibili sono rappresentate dai dischi gialli e rossi sulla carta.

Puntare il mouse per vedere il nome della stazione.

Clicca sopra per visualizzare le osservazioni e previsioni meteorologiche.

Per cambiare la mappa : fare clic sui pulsanti verdi con una croce nera per ingrandire, il pulsante verde con un trattino per diminuire, o sulla freccia verde per le mappe adiacenti.


METAR-TAF: